sensor_id;sensor_type;location;lat;lon;timestamp;P1;durP1;ratioP1;P2;durP2;ratioP2
56399;SDS011;42298;53.638;9.876;2023-04-03T00:01:09;6.13;;;3.10;;
56399;SDS011;42298;53.638;9.876;2023-04-03T00:03:36;8.33;;;3.37;;
56399;SDS011;42298;53.638;9.876;2023-04-03T00:06:02;7.57;;;3.13;;
56399;SDS011;42298;53.638;9.876;2023-04-03T00:08:30;8.23;;;3.37;;
56399;SDS011;42298;53.638;9.876;2023-04-03T00:10:56;14.90;;;5.70;;
56399;SDS011;42298;53.638;9.876;2023-04-03T00:13:22;12.20;;;5.67;;
56399;SDS011;42298;53.638;9.876;2023-04-03T00:15:48;12.83;;;6.23;;
56399;SDS011;42298;53.638;9.876;2023-04-03T00:18:14;15.80;;;6.77;;
56399;SDS011;42298;53.638;9.876;2023-04-03T00:20:40;13.73;;;5.87;;
56399;SDS011;42298;53.638;9.876;2023-04-03T00:23:05;13.13;;;5.20;;
56399;SDS011;42298;53.638;9.876;2023-04-03T00:25:31;9.33;;;4.97;;
56399;SDS011;42298;53.638;9.876;2023-04-03T00:27:57;9.03;;;3.83;;
56399;SDS011;42298;53.638;9.876;2023-04-03T00:30:22;9.67;;;3.90;;
56399;SDS011;42298;53.638;9.876;2023-04-03T00:32:48;8.53;;;4.20;;
56399;SDS011;42298;53.638;9.876;2023-04-03T00:35:14;8.77;;;3.60;;
56399;SDS011;42298;53.638;9.876;2023-04-03T00:37:43;8.30;;;3.37;;
56399;SDS011;42298;53.638;9.876;2023-04-03T00:40:09;7.63;;;2.93;;
56399;SDS011;42298;53.638;9.876;2023-04-03T00:42:36;8.03;;;3.80;;
56399;SDS011;42298;53.638;9.876;2023-04-03T00:47:27;7.13;;;3.93;;
56399;SDS011;42298;53.638;9.876;2023-04-03T00:49:54;7.97;;;3.20;;
56399;SDS011;42298;53.638;9.876;2023-04-03T00:52:21;5.87;;;2.60;;
56399;SDS011;42298;53.638;9.876;2023-04-03T00:54:51;7.30;;;3.37;;
56399;SDS011;42298;53.638;9.876;2023-04-03T00:57:22;7.23;;;2.80;;
56399;SDS011;42298;53.638;9.876;2023-04-03T00:59:51;6.13;;;2.67;;
56399;SDS011;42298;53.638;9.876;2023-04-03T01:02:24;7.87;;;2.93;;
56399;SDS011;42298;53.638;9.876;2023-04-03T01:04:50;7.97;;;3.03;;
56399;SDS011;42298;53.638;9.876;2023-04-03T01:07:17;4.80;;;2.73;;
56399;SDS011;42298;53.638;9.876;2023-04-03T01:09:47;5.07;;;2.50;;
56399;SDS011;42298;53.638;9.876;2023-04-03T01:14:59;6.47;;;2.77;;
56399;SDS011;42298;53.638;9.876;2023-04-03T01:17:32;5.83;;;3.07;;
56399;SDS011;42298;53.638;9.876;2023-04-03T01:25:22;5.63;;;2.70;;
56399;SDS011;42298;53.638;9.876;2023-04-03T01:27:48;6.53;;;2.60;;
56399;SDS011;42298;53.638;9.876;2023-04-03T01:30:14;7.60;;;2.80;;
56399;SDS011;42298;53.638;9.876;2023-04-03T01:32:42;6.23;;;3.00;;
56399;SDS011;42298;53.638;9.876;2023-04-03T01:35:08;7.23;;;2.60;;
56399;SDS011;42298;53.638;9.876;2023-04-03T01:37:33;8.87;;;2.70;;
56399;SDS011;42298;53.638;9.876;2023-04-03T01:39:59;8.53;;;3.00;;
56399;SDS011;42298;53.638;9.876;2023-04-03T01:42:24;6.73;;;2.80;;
56399;SDS011;42298;53.638;9.876;2023-04-03T01:44:49;5.50;;;2.50;;
56399;SDS011;42298;53.638;9.876;2023-04-03T01:47:16;7.70;;;3.00;;
56399;SDS011;42298;53.638;9.876;2023-04-03T01:49:41;6.40;;;3.23;;
56399;SDS011;42298;53.638;9.876;2023-04-03T01:52:07;9.90;;;2.97;;
56399;SDS011;42298;53.638;9.876;2023-04-03T01:54:32;5.97;;;3.07;;
56399;SDS011;42298;53.638;9.876;2023-04-03T01:56:57;7.63;;;2.70;;
56399;SDS011;42298;53.638;9.876;2023-04-03T01:59:23;8.50;;;2.90;;
56399;SDS011;42298;53.638;9.876;2023-04-03T02:01:48;6.97;;;3.10;;
56399;SDS011;42298;53.638;9.876;2023-04-03T02:04:14;7.33;;;2.87;;
56399;SDS011;42298;53.638;9.876;2023-04-03T02:06:39;6.37;;;2.70;;
56399;SDS011;42298;53.638;9.876;2023-04-03T02:09:05;7.57;;;2.80;;
56399;SDS011;42298;53.638;9.876;2023-04-03T02:11:31;8.37;;;3.20;;
56399;SDS011;42298;53.638;9.876;2023-04-03T02:13:56;9.20;;;3.30;;
56399;SDS011;42298;53.638;9.876;2023-04-03T02:16:21;6.60;;;3.17;;
56399;SDS011;42298;53.638;9.876;2023-04-03T02:18:47;5.23;;;2.70;;
56399;SDS011;42298;53.638;9.876;2023-04-03T02:21:12;8.60;;;3.27;;
56399;SDS011;42298;53.638;9.876;2023-04-03T02:23:37;9.17;;;3.50;;
56399;SDS011;42298;53.638;9.876;2023-04-03T02:26:07;7.00;;;3.00;;
56399;SDS011;42298;53.638;9.876;2023-04-03T02:28:35;5.63;;;2.90;;
56399;SDS011;42298;53.638;9.876;2023-04-03T02:31:00;5.73;;;2.80;;
56399;SDS011;42298;53.638;9.876;2023-04-03T02:33:26;7.23;;;3.00;;
56399;SDS011;42298;53.638;9.876;2023-04-03T02:35:52;7.07;;;3.00;;
56399;SDS011;42298;53.638;9.876;2023-04-03T02:38:19;8.03;;;3.27;;
56399;SDS011;42298;53.638;9.876;2023-04-03T02:40:44;10.37;;;2.83;;
56399;SDS011;42298;53.638;9.876;2023-04-03T02:43:09;6.73;;;3.03;;
56399;SDS011;42298;53.638;9.876;2023-04-03T02:45:35;6.53;;;3.03;;
56399;SDS011;42298;53.638;9.876;2023-04-03T02:48:02;6.03;;;2.67;;
56399;SDS011;42298;53.638;9.876;2023-04-03T02:50:27;5.77;;;2.67;;
56399;SDS011;42298;53.638;9.876;2023-04-03T02:52:52;7.50;;;2.67;;
56399;SDS011;42298;53.638;9.876;2023-04-03T02:55:17;8.73;;;2.87;;
56399;SDS011;42298;53.638;9.876;2023-04-03T02:57:43;11.47;;;3.20;;
56399;SDS011;42298;53.638;9.876;2023-04-03T03:00:08;8.40;;;3.10;;
56399;SDS011;42298;53.638;9.876;2023-04-03T03:02:34;7.63;;;2.80;;
56399;SDS011;42298;53.638;9.876;2023-04-03T03:05:00;6.17;;;2.90;;
56399;SDS011;42298;53.638;9.876;2023-04-03T03:07:26;8.97;;;2.90;;
56399;SDS011;42298;53.638;9.876;2023-04-03T03:09:51;9.87;;;3.00;;
56399;SDS011;42298;53.638;9.876;2023-04-03T03:12:16;10.17;;;3.43;;
56399;SDS011;42298;53.638;9.876;2023-04-03T03:14:46;8.97;;;3.27;;
56399;SDS011;42298;53.638;9.876;2023-04-03T03:17:11;7.20;;;2.90;;
56399;SDS011;42298;53.638;9.876;2023-04-03T03:19:37;4.03;;;2.60;;
56399;SDS011;42298;53.638;9.876;2023-04-03T03:22:02;4.03;;;2.50;;
56399;SDS011;42298;53.638;9.876;2023-04-03T03:24:27;8.43;;;3.23;;
56399;SDS011;42298;53.638;9.876;2023-04-03T03:26:52;7.67;;;3.00;;
56399;SDS011;42298;53.638;9.876;2023-04-03T03:29:18;6.50;;;2.80;;
56399;SDS011;42298;53.638;9.876;2023-04-03T03:31:43;5.00;;;2.70;;
56399;SDS011;42298;53.638;9.876;2023-04-03T03:34:08;7.00;;;2.73;;
56399;SDS011;42298;53.638;9.876;2023-04-03T03:36:34;12.50;;;3.40;;
56399;SDS011;42298;53.638;9.876;2023-04-03T03:38:59;5.47;;;2.90;;
56399;SDS011;42298;53.638;9.876;2023-04-03T03:41:25;7.57;;;3.17;;
56399;SDS011;42298;53.638;9.876;2023-04-03T03:43:50;8.43;;;3.07;;
56399;SDS011;42298;53.638;9.876;2023-04-03T03:46:15;9.97;;;3.10;;
56399;SDS011;42298;53.638;9.876;2023-04-03T03:48:41;10.63;;;3.50;;
56399;SDS011;42298;53.638;9.876;2023-04-03T03:51:06;8.53;;;2.93;;
56399;SDS011;42298;53.638;9.876;2023-04-03T03:53:32;8.17;;;2.73;;
56399;SDS011;42298;53.638;9.876;2023-04-03T03:55:58;10.10;;;3.13;;
56399;SDS011;42298;53.638;9.876;2023-04-03T03:58:23;7.17;;;3.13;;
56399;SDS011;42298;53.638;9.876;2023-04-03T04:00:48;7.43;;;2.80;;
56399;SDS011;42298;53.638;9.876;2023-04-03T04:03:13;8.03;;;2.80;;
56399;SDS011;42298;53.638;9.876;2023-04-03T04:05:39;6.27;;;2.83;;
56399;SDS011;42298;53.638;9.876;2023-04-03T04:08:04;7.80;;;3.00;;
56399;SDS011;42298;53.638;9.876;2023-04-03T04:10:30;8.53;;;3.63;;
56399;SDS011;42298;53.638;9.876;2023-04-03T04:12:55;8.63;;;3.53;;
56399;SDS011;42298;53.638;9.876;2023-04-03T04:15:20;9.53;;;3.10;;
56399;SDS011;42298;53.638;9.876;2023-04-03T04:17:46;6.37;;;3.17;;
56399;SDS011;42298;53.638;9.876;2023-04-03T04:20:12;8.70;;;3.00;;
56399;SDS011;42298;53.638;9.876;2023-04-03T04:22:37;7.63;;;2.83;;
56399;SDS011;42298;53.638;9.876;2023-04-03T04:25:04;7.57;;;3.10;;
56399;SDS011;42298;53.638;9.876;2023-04-03T04:27:30;6.10;;;2.80;;
56399;SDS011;42298;53.638;9.876;2023-04-03T04:29:56;9.37;;;3.50;;
56399;SDS011;42298;53.638;9.876;2023-04-03T04:32:21;6.97;;;2.77;;
56399;SDS011;42298;53.638;9.876;2023-04-03T04:34:46;5.83;;;2.93;;
56399;SDS011;42298;53.638;9.876;2023-04-03T04:37:11;8.63;;;3.13;;
56399;SDS011;42298;53.638;9.876;2023-04-03T04:39:37;9.47;;;3.00;;
56399;SDS011;42298;53.638;9.876;2023-04-03T04:42:02;9.53;;;4.03;;
56399;SDS011;42298;53.638;9.876;2023-04-03T04:44:28;6.33;;;2.73;;
56399;SDS011;42298;53.638;9.876;2023-04-03T04:46:53;8.90;;;3.37;;
56399;SDS011;42298;53.638;9.876;2023-04-03T04:49:18;9.80;;;3.10;;
56399;SDS011;42298;53.638;9.876;2023-04-03T04:51:44;7.47;;;3.27;;
56399;SDS011;42298;53.638;9.876;2023-04-03T04:54:09;7.37;;;3.40;;
56399;SDS011;42298;53.638;9.876;2023-04-03T04:56:34;8.33;;;3.30;;
56399;SDS011;42298;53.638;9.876;2023-04-03T04:59:00;7.13;;;3.10;;
56399;SDS011;42298;53.638;9.876;2023-04-03T05:01:26;6.40;;;3.00;;
56399;SDS011;42298;53.638;9.876;2023-04-03T05:03:51;7.77;;;3.37;;
56399;SDS011;42298;53.638;9.876;2023-04-03T05:06:16;7.17;;;3.10;;
56399;SDS011;42298;53.638;9.876;2023-04-03T05:08:42;7.47;;;3.10;;
56399;SDS011;42298;53.638;9.876;2023-04-03T05:11:07;7.47;;;2.93;;
56399;SDS011;42298;53.638;9.876;2023-04-03T05:13:32;7.23;;;3.00;;
56399;SDS011;42298;53.638;9.876;2023-04-03T05:15:57;6.93;;;2.80;;
56399;SDS011;42298;53.638;9.876;2023-04-03T05:18:25;6.93;;;3.20;;
56399;SDS011;42298;53.638;9.876;2023-04-03T05:20:51;9.30;;;4.50;;
56399;SDS011;42298;53.638;9.876;2023-04-03T05:23:16;7.77;;;3.30;;
56399;SDS011;42298;53.638;9.876;2023-04-03T05:25:41;7.53;;;3.20;;
56399;SDS011;42298;53.638;9.876;2023-04-03T05:28:08;7.90;;;3.07;;
56399;SDS011;42298;53.638;9.876;2023-04-03T05:30:34;6.97;;;2.87;;
56399;SDS011;42298;53.638;9.876;2023-04-03T05:33:00;8.87;;;3.40;;
56399;SDS011;42298;53.638;9.876;2023-04-03T05:35:25;7.03;;;3.47;;
56399;SDS011;42298;53.638;9.876;2023-04-03T05:37:51;8.50;;;3.37;;
56399;SDS011;42298;53.638;9.876;2023-04-03T05:40:16;7.60;;;3.13;;
56399;SDS011;42298;53.638;9.876;2023-04-03T05:42:41;8.93;;;3.40;;
56399;SDS011;42298;53.638;9.876;2023-04-03T05:45:07;6.33;;;3.00;;
56399;SDS011;42298;53.638;9.876;2023-04-03T05:47:32;8.73;;;3.40;;
56399;SDS011;42298;53.638;9.876;2023-04-03T05:49:58;7.67;;;3.17;;
56399;SDS011;42298;53.638;9.876;2023-04-03T05:52:25;9.23;;;3.17;;
56399;SDS011;42298;53.638;9.876;2023-04-03T05:54:52;8.20;;;3.33;;
56399;SDS011;42298;53.638;9.876;2023-04-03T05:57:18;7.97;;;3.33;;
56399;SDS011;42298;53.638;9.876;2023-04-03T05:59:44;9.23;;;4.10;;
56399;SDS011;42298;53.638;9.876;2023-04-03T06:02:11;9.90;;;4.40;;
56399;SDS011;42298;53.638;9.876;2023-04-03T06:04:38;8.60;;;3.70;;
56399;SDS011;42298;53.638;9.876;2023-04-03T06:07:03;8.60;;;3.90;;
56399;SDS011;42298;53.638;9.876;2023-04-03T06:09:29;11.70;;;3.87;;
56399;SDS011;42298;53.638;9.876;2023-04-03T06:11:55;7.83;;;3.67;;
56399;SDS011;42298;53.638;9.876;2023-04-03T06:14:23;7.83;;;3.40;;
56399;SDS011;42298;53.638;9.876;2023-04-03T06:16:49;6.43;;;2.90;;
56399;SDS011;42298;53.638;9.876;2023-04-03T06:19:14;9.13;;;3.60;;
56399;SDS011;42298;53.638;9.876;2023-04-03T06:21:40;12.20;;;3.83;;
56399;SDS011;42298;53.638;9.876;2023-04-03T06:24:05;8.40;;;3.70;;
56399;SDS011;42298;53.638;9.876;2023-04-03T06:26:31;13.93;;;3.73;;
56399;SDS011;42298;53.638;9.876;2023-04-03T06:28:58;9.47;;;3.77;;
56399;SDS011;42298;53.638;9.876;2023-04-03T06:31:23;11.20;;;3.40;;
56399;SDS011;42298;53.638;9.876;2023-04-03T06:33:50;8.53;;;3.43;;
56399;SDS011;42298;53.638;9.876;2023-04-03T06:36:15;6.80;;;2.83;;
56399;SDS011;42298;53.638;9.876;2023-04-03T06:38:44;10.43;;;3.63;;
56399;SDS011;42298;53.638;9.876;2023-04-03T06:41:10;10.17;;;3.33;;
56399;SDS011;42298;53.638;9.876;2023-04-03T06:43:36;8.90;;;3.60;;
56399;SDS011;42298;53.638;9.876;2023-04-03T06:46:01;6.77;;;3.17;;
56399;SDS011;42298;53.638;9.876;2023-04-03T06:48:27;8.33;;;3.80;;
56399;SDS011;42298;53.638;9.876;2023-04-03T06:50:52;11.33;;;3.23;;
56399;SDS011;42298;53.638;9.876;2023-04-03T06:53:18;7.73;;;3.13;;
56399;SDS011;42298;53.638;9.876;2023-04-03T06:55:43;7.33;;;3.10;;
56399;SDS011;42298;53.638;9.876;2023-04-03T06:58:08;7.67;;;3.40;;
56399;SDS011;42298;53.638;9.876;2023-04-03T07:00:34;7.30;;;3.07;;
56399;SDS011;42298;53.638;9.876;2023-04-03T07:03:01;8.57;;;2.90;;
56399;SDS011;42298;53.638;9.876;2023-04-03T07:05:27;9.00;;;3.13;;
56399;SDS011;42298;53.638;9.876;2023-04-03T07:07:53;10.55;;;3.35;;
56399;SDS011;42298;53.638;9.876;2023-04-03T07:10:18;6.13;;;2.72;;
56399;SDS011;42298;53.638;9.876;2023-04-03T07:12:46;7.70;;;3.20;;
56399;SDS011;42298;53.638;9.876;2023-04-03T07:15:12;8.93;;;2.77;;
56399;SDS011;42298;53.638;9.876;2023-04-03T07:17:39;9.57;;;2.90;;
56399;SDS011;42298;53.638;9.876;2023-04-03T07:20:05;7.38;;;3.10;;
56399;SDS011;42298;53.638;9.876;2023-04-03T07:22:31;7.18;;;2.92;;
56399;SDS011;42298;53.638;9.876;2023-04-03T07:24:56;7.03;;;2.90;;
56399;SDS011;42298;53.638;9.876;2023-04-03T07:27:25;8.48;;;2.83;;
56399;SDS011;42298;53.638;9.876;2023-04-03T07:29:50;7.53;;;2.70;;
56399;SDS011;42298;53.638;9.876;2023-04-03T07:32:16;5.95;;;2.53;;
56399;SDS011;42298;53.638;9.876;2023-04-03T07:34:43;6.93;;;2.78;;
56399;SDS011;42298;53.638;9.876;2023-04-03T07:37:09;9.23;;;2.75;;
56399;SDS011;42298;53.638;9.876;2023-04-03T07:39:35;6.63;;;2.67;;
56399;SDS011;42298;53.638;9.876;2023-04-03T07:42:00;8.13;;;2.35;;
56399;SDS011;42298;53.638;9.876;2023-04-03T07:44:26;9.13;;;2.60;;
56399;SDS011;42298;53.638;9.876;2023-04-03T07:46:52;8.98;;;2.08;;
56399;SDS011;42298;53.638;9.876;2023-04-03T07:49:18;7.43;;;2.15;;
56399;SDS011;42298;53.638;9.876;2023-04-03T07:51:43;6.70;;;2.00;;
56399;SDS011;42298;53.638;9.876;2023-04-03T07:54:10;4.97;;;2.10;;
56399;SDS011;42298;53.638;9.876;2023-04-03T07:56:35;4.82;;;1.65;;
56399;SDS011;42298;53.638;9.876;2023-04-03T07:59:01;9.07;;;1.73;;
56399;SDS011;42298;53.638;9.876;2023-04-03T08:01:26;5.53;;;1.90;;
56399;SDS011;42298;53.638;9.876;2023-04-03T08:03:52;5.37;;;1.73;;
56399;SDS011;42298;53.638;9.876;2023-04-03T08:06:17;5.93;;;1.60;;
56399;SDS011;42298;53.638;9.876;2023-04-03T08:08:43;7.47;;;1.70;;
56399;SDS011;42298;53.638;9.876;2023-04-03T08:11:09;4.17;;;1.83;;
56399;SDS011;42298;53.638;9.876;2023-04-03T08:13:35;8.17;;;1.80;;
56399;SDS011;42298;53.638;9.876;2023-04-03T08:16:10;5.97;;;1.70;;
56399;SDS011;42298;53.638;9.876;2023-04-03T08:18:47;7.43;;;2.53;;
56399;SDS011;42298;53.638;9.876;2023-04-03T08:21:13;5.90;;;1.70;;
56399;SDS011;42298;53.638;9.876;2023-04-03T08:23:39;8.17;;;2.03;;
56399;SDS011;42298;53.638;9.876;2023-04-03T08:26:08;5.53;;;1.83;;
56399;SDS011;42298;53.638;9.876;2023-04-03T08:28:36;3.63;;;1.83;;
56399;SDS011;42298;53.638;9.876;2023-04-03T08:31:02;6.10;;;1.60;;
56399;SDS011;42298;53.638;9.876;2023-04-03T08:33:31;8.03;;;2.00;;
56399;SDS011;42298;53.638;9.876;2023-04-03T08:35:57;6.80;;;2.13;;
56399;SDS011;42298;53.638;9.876;2023-04-03T08:38:22;5.73;;;1.73;;
56399;SDS011;42298;53.638;9.876;2023-04-03T08:40:48;5.10;;;1.60;;
56399;SDS011;42298;53.638;9.876;2023-04-03T08:46:07;4.30;;;1.73;;
56399;SDS011;42298;53.638;9.876;2023-04-03T08:48:41;4.10;;;1.60;;
56399;SDS011;42298;53.638;9.876;2023-04-03T08:51:15;3.50;;;1.40;;
56399;SDS011;42298;53.638;9.876;2023-04-03T08:53:59;7.87;;;2.20;;
56399;SDS011;42298;53.638;9.876;2023-04-03T08:56:29;5.97;;;1.90;;
56399;SDS011;42298;53.638;9.876;2023-04-03T08:59:06;5.88;;;1.90;;
56399;SDS011;42298;53.638;9.876;2023-04-03T09:01:39;5.50;;;1.80;;
56399;SDS011;42298;53.638;9.876;2023-04-03T09:04:10;3.28;;;1.75;;
56399;SDS011;42298;53.638;9.876;2023-04-03T09:06:37;4.75;;;1.77;;
56399;SDS011;42298;53.638;9.876;2023-04-03T09:17:09;3.90;;;1.30;;
56399;SDS011;42298;53.638;9.876;2023-04-03T09:19:41;4.20;;;1.88;;
56399;SDS011;42298;53.638;9.876;2023-04-03T09:22:21;4.80;;;1.70;;
56399;SDS011;42298;53.638;9.876;2023-04-03T09:24:52;6.43;;;1.80;;
56399;SDS011;42298;53.638;9.876;2023-04-03T09:27:24;6.93;;;1.77;;
56399;SDS011;42298;53.638;9.876;2023-04-03T09:29:49;4.75;;;1.60;;
56399;SDS011;42298;53.638;9.876;2023-04-03T09:32:21;5.00;;;1.50;;
56399;SDS011;42298;53.638;9.876;2023-04-03T09:34:52;4.28;;;1.77;;
56399;SDS011;42298;53.638;9.876;2023-04-03T09:37:34;4.10;;;1.57;;
56399;SDS011;42298;53.638;9.876;2023-04-03T09:40:01;3.47;;;1.47;;
56399;SDS011;42298;53.638;9.876;2023-04-03T09:42:29;3.30;;;1.80;;
56399;SDS011;42298;53.638;9.876;2023-04-03T09:45:04;4.90;;;1.63;;
56399;SDS011;42298;53.638;9.876;2023-04-03T09:47:34;5.70;;;1.50;;
56399;SDS011;42298;53.638;9.876;2023-04-03T09:52:49;2.83;;;1.40;;
56399;SDS011;42298;53.638;9.876;2023-04-03T09:55:20;5.60;;;2.03;;
56399;SDS011;42298;53.638;9.876;2023-04-03T09:57:55;4.80;;;1.50;;
56399;SDS011;42298;53.638;9.876;2023-04-03T10:00:27;3.60;;;1.40;;
56399;SDS011;42298;53.638;9.876;2023-04-03T10:02:58;2.92;;;1.60;;
56399;SDS011;42298;53.638;9.876;2023-04-03T10:05:38;5.05;;;1.45;;
56399;SDS011;42298;53.638;9.876;2023-04-03T10:10:39;4.03;;;1.80;;
56399;SDS011;42298;53.638;9.876;2023-04-03T10:13:12;4.03;;;1.60;;
56399;SDS011;42298;53.638;9.876;2023-04-03T10:15:42;5.07;;;1.60;;
56399;SDS011;42298;53.638;9.876;2023-04-03T10:21:13;4.33;;;1.50;;
56399;SDS011;42298;53.638;9.876;2023-04-03T10:24:28;5.67;;;1.63;;
56399;SDS011;42298;53.638;9.876;2023-04-03T10:26:51;3.57;;;1.40;;
56399;SDS011;42298;53.638;9.876;2023-04-03T10:35:02;4.17;;;1.60;;
56399;SDS011;42298;53.638;9.876;2023-04-03T10:42:53;4.57;;;1.80;;
56399;SDS011;42298;53.638;9.876;2023-04-03T10:48:11;4.00;;;1.70;;
56399;SDS011;42298;53.638;9.876;2023-04-03T10:50:52;5.37;;;2.00;;
56399;SDS011;42298;53.638;9.876;2023-04-03T10:54:00;7.07;;;1.73;;
56399;SDS011;42298;53.638;9.876;2023-04-03T10:56:39;5.30;;;1.70;;
56399;SDS011;42298;53.638;9.876;2023-04-03T11:01:52;5.20;;;1.83;;
56399;SDS011;42298;53.638;9.876;2023-04-03T11:04:20;4.23;;;1.70;;
56399;SDS011;42298;53.638;9.876;2023-04-03T11:06:53;8.17;;;2.07;;
56399;SDS011;42298;53.638;9.876;2023-04-03T11:09:35;4.47;;;1.53;;
56399;SDS011;42298;53.638;9.876;2023-04-03T11:12:06;4.37;;;1.40;;
56399;SDS011;42298;53.638;9.876;2023-04-03T11:14:38;7.07;;;2.00;;
56399;SDS011;42298;53.638;9.876;2023-04-03T11:17:27;3.70;;;1.60;;
56399;SDS011;42298;53.638;9.876;2023-04-03T11:22:42;5.70;;;1.83;;
56399;SDS011;42298;53.638;9.876;2023-04-03T11:35:44;3.80;;;1.60;;
56399;SDS011;42298;53.638;9.876;2023-04-03T11:38:19;7.13;;;1.73;;
56399;SDS011;42298;53.638;9.876;2023-04-03T11:40:57;3.03;;;1.50;;
56399;SDS011;42298;53.638;9.876;2023-04-03T11:43:25;3.87;;;1.57;;
56399;SDS011;42298;53.638;9.876;2023-04-03T11:46:00;4.83;;;1.80;;
56399;SDS011;42298;53.638;9.876;2023-04-03T11:50:53;5.17;;;2.00;;
56399;SDS011;42298;53.638;9.876;2023-04-03T11:53:35;3.43;;;1.53;;
56399;SDS011;42298;53.638;9.876;2023-04-03T12:01:51;8.57;;;2.00;;
56399;SDS011;42298;53.638;9.876;2023-04-03T12:04:19;6.90;;;2.03;;
56399;SDS011;42298;53.638;9.876;2023-04-03T12:12:29;2.90;;;1.57;;
56399;SDS011;42298;53.638;9.876;2023-04-03T12:15:18;5.13;;;1.53;;
56399;SDS011;42298;53.638;9.876;2023-04-03T12:21:18;5.73;;;1.80;;
56399;SDS011;42298;53.638;9.876;2023-04-03T12:46:43;4.80;;;1.70;;
56399;SDS011;42298;53.638;9.876;2023-04-03T12:49:22;3.93;;;1.60;;
56399;SDS011;42298;53.638;9.876;2023-04-03T12:51:48;5.17;;;1.67;;
56399;SDS011;42298;53.638;9.876;2023-04-03T12:56:46;3.37;;;1.67;;
56399;SDS011;42298;53.638;9.876;2023-04-03T12:59:21;5.07;;;1.70;;
56399;SDS011;42298;53.638;9.876;2023-04-03T13:01:54;4.63;;;1.60;;
56399;SDS011;42298;53.638;9.876;2023-04-03T13:04:23;4.40;;;1.80;;
56399;SDS011;42298;53.638;9.876;2023-04-03T13:06:49;8.03;;;2.00;;
56399;SDS011;42298;53.638;9.876;2023-04-03T13:09:20;5.33;;;1.87;;
56399;SDS011;42298;53.638;9.876;2023-04-03T13:11:49;3.30;;;2.00;;
56399;SDS011;42298;53.638;9.876;2023-04-03T13:14:21;3.33;;;1.50;;
56399;SDS011;42298;53.638;9.876;2023-04-03T13:17:04;3.80;;;1.70;;
56399;SDS011;42298;53.638;9.876;2023-04-03T13:19:37;2.43;;;1.70;;
56399;SDS011;42298;53.638;9.876;2023-04-03T13:22:05;4.40;;;1.70;;
56399;SDS011;42298;53.638;9.876;2023-04-03T13:24:35;3.87;;;1.60;;
56399;SDS011;42298;53.638;9.876;2023-04-03T13:27:03;5.67;;;1.90;;
56399;SDS011;42298;53.638;9.876;2023-04-03T13:29:32;2.67;;;1.70;;
56399;SDS011;42298;53.638;9.876;2023-04-03T13:32:00;4.03;;;1.57;;
56399;SDS011;42298;53.638;9.876;2023-04-03T13:34:29;5.23;;;1.80;;
56399;SDS011;42298;53.638;9.876;2023-04-03T13:37:01;5.13;;;1.63;;
56399;SDS011;42298;53.638;9.876;2023-04-03T13:39:33;6.43;;;1.70;;
56399;SDS011;42298;53.638;9.876;2023-04-03T13:42:02;4.73;;;1.70;;
56399;SDS011;42298;53.638;9.876;2023-04-03T13:44:40;3.57;;;1.50;;
56399;SDS011;42298;53.638;9.876;2023-04-03T13:50:00;3.23;;;1.70;;
56399;SDS011;42298;53.638;9.876;2023-04-03T13:55:24;6.20;;;1.83;;
56399;SDS011;42298;53.638;9.876;2023-04-03T14:00:29;6.60;;;2.20;;
56399;SDS011;42298;53.638;9.876;2023-04-03T14:05:48;4.60;;;1.83;;
56399;SDS011;42298;53.638;9.876;2023-04-03T14:08:15;6.13;;;2.00;;
56399;SDS011;42298;53.638;9.876;2023-04-03T14:10:42;5.70;;;2.00;;
56399;SDS011;42298;53.638;9.876;2023-04-03T14:13:12;5.53;;;1.97;;
56399;SDS011;42298;53.638;9.876;2023-04-03T14:15:40;3.57;;;1.70;;
56399;SDS011;42298;53.638;9.876;2023-04-03T14:18:06;6.20;;;2.37;;
56399;SDS011;42298;53.638;9.876;2023-04-03T14:20:31;5.10;;;1.90;;
56399;SDS011;42298;53.638;9.876;2023-04-03T14:22:58;6.33;;;1.97;;
56399;SDS011;42298;53.638;9.876;2023-04-03T14:25:23;5.30;;;2.00;;
56399;SDS011;42298;53.638;9.876;2023-04-03T14:27:51;4.43;;;1.90;;
56399;SDS011;42298;53.638;9.876;2023-04-03T14:30:23;4.80;;;1.50;;
56399;SDS011;42298;53.638;9.876;2023-04-03T14:32:51;5.07;;;1.50;;
56399;SDS011;42298;53.638;9.876;2023-04-03T14:35:17;6.53;;;2.13;;
56399;SDS011;42298;53.638;9.876;2023-04-03T14:37:43;4.13;;;1.90;;
56399;SDS011;42298;53.638;9.876;2023-04-03T14:40:11;7.07;;;2.33;;
56399;SDS011;42298;53.638;9.876;2023-04-03T14:42:39;5.17;;;2.17;;
56399;SDS011;42298;53.638;9.876;2023-04-03T14:45:09;4.27;;;2.00;;
56399;SDS011;42298;53.638;9.876;2023-04-03T14:47:51;7.47;;;2.17;;
56399;SDS011;42298;53.638;9.876;2023-04-03T14:50:19;8.13;;;2.30;;
56399;SDS011;42298;53.638;9.876;2023-04-03T14:52:49;7.93;;;2.37;;
56399;SDS011;42298;53.638;9.876;2023-04-03T14:55:17;6.00;;;2.23;;
56399;SDS011;42298;53.638;9.876;2023-04-03T14:57:44;4.90;;;2.07;;
56399;SDS011;42298;53.638;9.876;2023-04-03T15:00:17;4.73;;;1.77;;
56399;SDS011;42298;53.638;9.876;2023-04-03T15:02:44;3.73;;;1.83;;
56399;SDS011;42298;53.638;9.876;2023-04-03T15:05:10;5.60;;;1.87;;
56399;SDS011;42298;53.638;9.876;2023-04-03T15:07:47;5.00;;;1.93;;
56399;SDS011;42298;53.638;9.876;2023-04-03T15:12:42;6.63;;;2.07;;
56399;SDS011;42298;53.638;9.876;2023-04-03T15:15:08;5.00;;;2.00;;
56399;SDS011;42298;53.638;9.876;2023-04-03T15:17:34;5.47;;;2.00;;
56399;SDS011;42298;53.638;9.876;2023-04-03T15:20:02;3.90;;;1.83;;
56399;SDS011;42298;53.638;9.876;2023-04-03T15:22:28;4.87;;;2.13;;
56399;SDS011;42298;53.638;9.876;2023-04-03T15:24:53;6.23;;;2.03;;
56399;SDS011;42298;53.638;9.876;2023-04-03T15:27:19;5.17;;;1.70;;
56399;SDS011;42298;53.638;9.876;2023-04-03T15:29:44;5.27;;;2.00;;
56399;SDS011;42298;53.638;9.876;2023-04-03T15:32:10;5.93;;;2.00;;
56399;SDS011;42298;53.638;9.876;2023-04-03T15:34:36;4.03;;;2.00;;
56399;SDS011;42298;53.638;9.876;2023-04-03T15:37:02;6.20;;;1.83;;
56399;SDS011;42298;53.638;9.876;2023-04-03T15:39:28;6.97;;;2.57;;
56399;SDS011;42298;53.638;9.876;2023-04-03T15:41:54;7.80;;;2.30;;
56399;SDS011;42298;53.638;9.876;2023-04-03T15:44:21;6.50;;;1.87;;
56399;SDS011;42298;53.638;9.876;2023-04-03T15:46:47;5.30;;;1.90;;
56399;SDS011;42298;53.638;9.876;2023-04-03T15:49:16;4.67;;;1.97;;
56399;SDS011;42298;53.638;9.876;2023-04-03T15:51:42;6.87;;;2.30;;
56399;SDS011;42298;53.638;9.876;2023-04-03T15:54:08;9.20;;;2.23;;
56399;SDS011;42298;53.638;9.876;2023-04-03T15:56:33;6.90;;;2.23;;
56399;SDS011;42298;53.638;9.876;2023-04-03T15:58:58;5.17;;;1.93;;
56399;SDS011;42298;53.638;9.876;2023-04-03T16:01:24;6.87;;;3.10;;
56399;SDS011;42298;53.638;9.876;2023-04-03T16:03:49;5.50;;;2.10;;
56399;SDS011;42298;53.638;9.876;2023-04-03T16:06:15;5.17;;;2.00;;
56399;SDS011;42298;53.638;9.876;2023-04-03T16:08:43;6.30;;;2.00;;
56399;SDS011;42298;53.638;9.876;2023-04-03T16:11:09;5.57;;;2.30;;
56399;SDS011;42298;53.638;9.876;2023-04-03T16:13:34;5.30;;;2.10;;
56399;SDS011;42298;53.638;9.876;2023-04-03T16:16:01;6.47;;;1.80;;
56399;SDS011;42298;53.638;9.876;2023-04-03T16:18:27;8.13;;;2.00;;
56399;SDS011;42298;53.638;9.876;2023-04-03T16:20:53;5.53;;;1.83;;
56399;SDS011;42298;53.638;9.876;2023-04-03T16:23:19;6.00;;;2.23;;
56399;SDS011;42298;53.638;9.876;2023-04-03T16:25:45;7.23;;;2.33;;
56399;SDS011;42298;53.638;9.876;2023-04-03T16:28:12;9.97;;;2.10;;
56399;SDS011;42298;53.638;9.876;2023-04-03T16:30:39;5.97;;;2.27;;
56399;SDS011;42298;53.638;9.876;2023-04-03T16:33:06;5.60;;;2.20;;
56399;SDS011;42298;53.638;9.876;2023-04-03T16:35:31;5.00;;;2.00;;
56399;SDS011;42298;53.638;9.876;2023-04-03T16:37:58;4.80;;;1.63;;
56399;SDS011;42298;53.638;9.876;2023-04-03T16:40:23;6.83;;;2.20;;
56399;SDS011;42298;53.638;9.876;2023-04-03T16:42:49;6.80;;;2.37;;
56399;SDS011;42298;53.638;9.876;2023-04-03T16:45:14;6.87;;;2.27;;
56399;SDS011;42298;53.638;9.876;2023-04-03T16:47:40;6.90;;;2.37;;